Latest Weather Observations for Condobolin Airport

IDN60801

Issued at 8:35 pm EST Wednesday 20 August 2014 (issued every 30 minutes, with the page automatically refreshed every 10 minutes)

About weather observations | Map of weather stations | Latest weather observations for NSW | Other Formats
Station Details ID: 050137 Name: CONDOBOLIN AIRPORT AWS Lat: -33.07 Lon: 147.21 Height: 192.6 m
Data from the previous 72 hours. | See also: Recent months at Condobolin Airport
Date/Time
EST
Temp
°C
App
Temp
°C
Dew
Point
Rel
Hum
%
Delta-T
°C
Wind Press
QNH
hPa
Press
MSL
hPa
Rain
since 9 am
mm
Dir
 
Spd
km/h
Gust
km/h
Spd
kts
Gust
kts
20/08:30pm 6.8 5.5 3.9 82 1.2 SE 0 0 0 0 1025.4 - 0.0
20/08:00pm 7.9 6.4 4.8 81 1.4 SE 2 7 1 4 1025.0 - 0.0
20/07:30pm 9.2 6.7 5.0 75 1.9 SE 7 7 4 4 1024.7 - 0.0
20/07:00pm 9.8 7.3 5.0 72 2.2 SE 7 7 4 4 1024.4 - 0.0
20/06:30pm 11.2 8.4 5.3 67 2.7 SE 9 11 5 6 1024.3 - 0.0
20/06:00pm 12.2 9.0 5.1 62 3.3 SE 11 13 6 7 1024.0 1024.3 0.0
20/05:30pm 14.3 11.1 4.9 53 4.4 SE 11 17 6 9 1023.7 - 0.0
20/05:00pm 15.8 11.8 5.1 49 5.1 SE 15 20 8 11 1023.4 - 0.0
20/04:30pm 16.5 12.5 4.9 46 5.6 SE 15 20 8 11 1023.3 - 0.0
20/04:00pm 16.8 12.3 4.2 43 6.0 SE 17 22 9 12 1023.3 - 0.0
20/03:30pm 17.4 13.3 4.4 42 6.2 ESE 15 22 8 12 1023.2 - 0.0
20/03:00pm 17.5 13.3 3.8 40 6.4 SE 15 24 8 13 1023.2 1023.5 0.0
20/02:30pm 17.3 14.6 3.6 40 6.4 SSE 7 13 4 7 1023.2 - 0.0
20/02:00pm 18.1 15.8 5.0 42 6.3 ESE 6 11 3 6 1023.3 - 0.0
20/01:30pm 17.5 15.1 5.4 45 5.9 ESE 7 13 4 7 1023.5 - 0.0
20/01:00pm 17.7 15.1 5.9 46 5.8 SSE 9 24 5 13 1024.0 - 0.0
20/12:30pm 16.6 13.6 4.0 43 5.9 NE 9 17 5 9 1024.4 - 0.0
20/12:00pm 16.6 13.6 4.0 43 5.9 E 9 17 5 9 1024.7 1025.0 0.0
20/11:30am 16.0 13.1 4.7 47 5.4 E 9 15 5 8 1025.1 - 0.0
20/11:00am 15.2 11.4 3.7 46 5.3 E 13 19 7 10 1025.3 - 0.0
20/10:30am 14.4 11.8 6.0 57 4.1 ESE 9 15 5 8 1025.5 - 0.0
20/10:00am 12.7 9.8 6.5 66 3.0 ESE 11 17 6 9 1025.6 - 0.0
20/09:30am 11.7 8.6 7.2 74 2.2 ESE 13 17 7 9 1025.5 - 0.0
20/09:00am 10.1 7.8 7.3 83 1.3 SSE 9 11 5 6 1025.4 1025.6 0.2
20/08:30am 8.7 6.4 7.5 92 0.6 SSE 9 11 5 6 1025.1 - 0.2
20/08:00am 7.0 4.6 6.9 99 0.0 SSE 9 11 5 6 1024.7 - 0.2
20/07:30am 4.6 3.4 4.5 99 0.0 CALM 0 0 0 0 1024.5 - 0.2
20/07:00am 1.3 -0.5 1.2 99 0.0 CALM 0 0 0 0 1024.3 - 0.2
20/06:30am 1.0 -1.6 0.9 99 0.0 SSE 4 7 2 4 1023.9 - 0.2
20/06:00am 1.1 -1.5 1.0 99 0.0 SSE 4 7 2 4 1023.6 1023.9 0.2
20/05:30am 1.2 -1.0 0.9 98 0.1 SSE 2 7 1 4 1023.1 - 0.2
20/05:00am 1.8 0.0 1.5 98 0.1 CALM 0 0 0 0 1022.9 - 0.2
20/04:30am 2.3 0.7 2.2 99 0.0 CALM 0 0 0 0 1022.6 - 0.2
20/04:00am 2.5 0.9 2.2 98 0.1 CALM 0 0 0 0 1022.3 - 0.2
20/03:30am 3.3 1.8 3.2 99 0.0 CALM 0 0 0 0 1022.1 - 0.2
20/03:00am 2.8 1.2 2.4 97 0.2 CALM 0 0 0 0 1022.0 1022.3 0.2
20/02:30am 3.4 1.9 3.1 98 0.1 CALM 0 0 0 0 1021.9 - 0.2
20/02:00am 4.5 3.3 4.4 99 0.0 CALM 0 0 0 0 1021.9 - 0.2
20/01:30am 4.0 2.6 3.6 97 0.2 CALM 0 0 0 0 1021.9 - 0.2
20/01:00am 4.8 3.6 4.5 98 0.1 CALM 0 0 0 0 1021.8 - 0.2
20/12:30am 4.2 2.8 3.3 94 0.4 SSE 0 0 0 0 1021.8 - 0.2
20/12:00am 5.4 3.1 4.7 95 0.3 SSE 6 7 3 4 1021.8 1022.1 0.2
 
Date/Time
EST
Temp
°C
App
Temp
°C
Dew
Point
Rel
Hum
%
Delta-T
°C
Wind Press
QNH
hPa
Press
MSL
hPa
Rain
since 9 am
mm
Dir
 
Spd
km/h
Gust
km/h
Spd
kts
Gust
kts
19/11:30pm 5.7 4.6 5.0 95 0.3 CALM 0 0 0 0 1021.9 - 0.2
19/11:00pm 5.1 3.7 3.6 90 0.6 CALM 0 0 0 0 1021.8 - 0.2
19/10:30pm 6.0 4.7 4.3 89 0.7 CALM 0 0 0 0 1021.8 - 0.2
19/10:00pm 7.7 6.4 5.8 88 0.9 SSE 2 6 1 3 1021.8 - 0.2
19/09:30pm 7.5 4.8 5.5 87 0.9 SSE 9 9 5 5 1021.6 - 0.2
19/09:00pm 7.8 5.5 5.8 87 0.9 SSE 7 9 4 5 1021.5 1021.8 0.2
19/08:30pm 8.4 7.1 5.9 84 1.1 SSE 2 9 1 5 1021.5 - 0.2
19/08:00pm 9.9 9.1 6.4 79 1.6 CALM 0 0 0 0 1021.2 - 0.2
19/07:30pm 9.9 8.3 6.4 79 1.6 WSW 4 7 2 4 1021.0 - 0.2
19/07:00pm 11.0 8.9 6.7 75 2.1 WSW 7 9 4 5 1020.7 - 0.2
19/06:30pm 11.8 9.3 6.7 71 2.5 SW 9 11 5 6 1020.3 - 0.2
19/06:00pm 13.0 10.6 6.8 66 3.0 SW 9 11 5 6 1020.0 1020.2 0.2
19/05:30pm 15.1 11.7 6.1 55 4.4 SW 13 15 7 8 1019.5 - 0.2
19/05:00pm 16.7 13.3 5.9 49 5.3 SW 13 17 7 9 1019.4 - 0.2
19/04:30pm 17.6 13.2 4.9 43 6.1 SW 17 22 9 12 1019.2 - 0.2
19/04:00pm 17.9 13.6 5.2 43 6.2 SW 17 24 9 13 1018.9 - 0.2
19/03:30pm 17.4 12.5 1.8 35 7.1 WSW 17 26 9 14 1018.8 - 0.0
19/03:00pm 19.0 14.4 5.5 41 6.7 SW 19 28 10 15 1018.8 1019.1 0.0
19/02:30pm 18.3 14.5 5.8 44 6.2 SSW 15 33 8 18 1018.8 - 0.0
19/02:00pm 18.5 14.2 5.4 42 6.4 SSW 17 24 9 13 1018.6 - 0.0
19/01:30pm 18.1 13.8 7.2 49 5.5 WSW 19 24 10 13 1018.6 - 0.0
19/01:00pm 17.3 14.1 8.4 56 4.6 SSW 15 28 8 15 1018.9 - 0.0
19/12:30pm 17.5 15.2 8.9 57 4.5 SSW 11 20 6 11 1019.1 - 0.0
19/12:00pm 16.0 12.6 7.5 57 4.3 SSW 15 20 8 11 1019.6 1019.9 0.0
19/11:30am 16.0 13.4 9.2 64 3.5 W 13 20 7 11 1019.9 - 0.0
19/11:00am 14.9 12.6 9.1 68 3.0 W 11 15 6 8 1020.2 - 0.0
19/10:30am 13.3 10.5 8.6 73 2.4 SW 13 19 7 10 1020.4 - 0.0
19/10:00am 11.7 9.3 8.6 81 1.6 SW 11 15 6 8 1020.3 - 0.0
19/09:30am 10.9 8.3 9.2 89 0.9 SW 13 19 7 10 1020.4 - 0.0
19/09:00am 9.5 6.2 8.1 91 0.7 W 15 19 8 10 1020.1 1020.3 0.0
19/08:30am 8.8 5.5 7.9 94 0.4 W 15 19 8 10 1019.4 - 0.0
19/08:00am 8.5 6.0 8.1 97 0.2 W 11 15 6 8 1019.2 - 0.0
19/07:30am 8.1 5.5 7.8 98 0.1 W 11 15 6 8 1019.0 - 0.0
19/07:00am 7.9 4.9 7.6 98 0.1 W 13 15 7 8 1018.5 - 0.0
19/06:30am 8.0 5.0 7.7 98 0.1 W 13 17 7 9 1018.3 - 0.0
19/06:00am 8.0 5.7 7.6 97 0.2 W 9 11 5 6 1018.0 1018.3 0.0
19/05:30am 8.3 5.7 7.7 96 0.3 W 11 13 6 7 1017.6 - 0.0
19/05:00am 8.5 5.9 7.9 96 0.3 W 11 15 6 8 1017.5 - 0.0
19/04:30am 8.6 5.6 7.8 95 0.4 W 13 15 7 8 1017.3 - 0.0
19/04:00am 8.6 5.6 7.8 95 0.4 W 13 17 7 9 1017.1 - 0.0
19/03:30am 8.7 6.1 7.8 94 0.4 W 11 15 6 8 1017.0 - 0.0
19/03:00am 8.9 6.3 7.8 93 0.5 W 11 13 6 7 1017.0 1017.3 0.0
19/02:30am 9.5 7.0 8.1 91 0.7 W 11 15 6 8 1016.8 - 0.0
19/02:00am 9.6 7.1 8.4 92 0.6 W 11 13 6 7 1016.9 - 0.0
19/01:30am 9.7 7.2 8.3 91 0.7 W 11 15 6 8 1016.9 - 0.0
19/01:00am 10.2 7.4 8.6 90 0.8 W 13 15 7 8 1016.7 - 0.0
19/12:30am 10.5 7.8 8.8 89 0.8 W 13 17 7 9 1016.6 - 0.0
19/12:00am 10.4 8.0 8.7 89 0.8 W 11 13 6 7 1016.6 1016.8 0.0
 
Date/Time
EST
Temp
°C
App
Temp
°C
Dew
Point
Rel
Hum
%
Delta-T
°C
Wind Press
QNH
hPa
Press
MSL
hPa
Rain
since 9 am
mm
Dir
 
Spd
km/h
Gust
km/h
Spd
kts
Gust
kts
18/11:30pm 11.1 8.7 8.5 84 1.3 WSW 11 15 6 8 1016.5 - 0.0
18/11:00pm 11.7 8.9 8.7 82 1.5 WSW 13 17 7 9 1016.4 - 0.0
18/10:30pm 12.1 9.0 8.9 81 1.6 WSW 15 17 8 9 1016.3 - 0.0
18/10:00pm 12.5 9.1 9.0 79 1.8 WSW 17 20 9 11 1016.1 - 0.0
18/09:30pm 12.8 9.4 9.1 78 1.9 WSW 17 24 9 13 1016.1 - 0.0
18/09:00pm 12.9 9.0 9.4 79 1.8 WSW 20 26 11 14 1015.9 1016.1 0.0
18/08:30pm 13.2 9.3 9.5 78 1.9 WSW 20 30 11 16 1015.5 - 0.0
18/08:00pm 13.4 9.5 9.5 77 2.0 WSW 20 26 11 14 1015.4 - 0.0
18/07:30pm 13.7 9.8 9.6 76 2.1 WSW 20 28 11 15 1015.0 - 0.0
18/07:00pm 14.2 9.9 9.4 73 2.5 WSW 22 32 12 17 1014.6 - 0.0
18/06:30pm 14.3 10.7 9.7 74 2.4 W 19 24 10 13 1014.4 - 0.0
18/06:00pm 14.4 11.1 9.6 73 2.5 WSW 17 24 9 13 1013.9 1014.2 0.0
18/05:30pm 15.3 12.3 9.2 67 3.2 WSW 15 20 8 11 1013.5 - 0.0
18/05:00pm 15.6 12.5 8.8 64 3.5 WSW 15 20 8 11 1013.1 - 0.0
18/04:30pm 16.0 12.0 8.2 60 4.0 SW 19 28 10 15 1012.8 - 0.0
18/04:00pm 16.4 12.0 8.9 61 3.9 SW 22 28 12 15 1012.6 - 0.0
18/03:30pm 16.9 12.4 8.6 58 4.3 SW 22 30 12 16 1012.3 - 0.0
18/03:00pm 17.2 12.7 8.4 56 4.5 SW 22 28 12 15 1012.1 1012.3 0.0
18/02:30pm 17.4 12.8 8.0 54 4.8 SW 22 30 12 16 1011.9 - 0.0
18/02:00pm 17.0 12.0 8.2 56 4.5 SW 24 32 13 17 1012.0 - 0.0
18/01:30pm 17.4 13.0 7.5 52 5.0 WSW 20 32 11 17 1012.0 - 0.0
18/01:00pm 16.7 11.8 8.4 58 4.3 SW 24 32 13 17 1012.0 - 0.0
18/12:30pm 16.3 11.9 9.0 62 3.8 WSW 22 28 12 15 1012.3 - 0.0
18/12:00pm 15.4 10.9 8.6 64 3.5 SW 22 30 12 16 1012.6 1012.9 0.0
18/11:30am 14.4 10.1 7.9 65 3.3 SW 20 26 11 14 1013.0 - 0.0
18/11:00am 14.1 10.6 8.7 70 2.8 SSW 17 24 9 13 1013.2 - 0.0
18/10:30am 13.2 8.2 7.9 70 2.6 SSW 24 30 13 16 1013.1 - 0.0
18/10:00am 12.8 7.9 8.3 74 2.3 SW 24 30 13 16 1012.8 - 0.0
18/09:30am 12.3 7.3 8.0 75 2.1 SW 24 32 13 17 1012.7 - 0.0
18/09:00am 10.8 6.7 8.6 86 1.1 WSW 20 24 11 13 1012.6 1012.9 0.8
18/08:30am 10.0 5.7 7.8 86 1.1 W 20 26 11 14 1012.4 - 0.8
18/08:00am 10.1 5.8 7.7 85 1.2 WSW 20 28 11 15 1012.0 - 0.8
18/07:30am 10.0 5.8 7.6 85 1.2 WSW 19 24 10 13 1011.8 - 0.8
18/07:00am 9.9 5.7 7.5 85 1.2 WSW 19 24 10 13 1011.4 - 0.8
18/06:30am 9.9 6.1 7.7 86 1.1 WSW 17 20 9 11 1011.0 - 0.8
18/06:00am 9.8 6.1 7.9 88 0.9 WSW 17 22 9 12 1010.6 1010.8 0.8
18/05:30am 9.8 6.1 8.1 89 0.8 WSW 17 22 9 12 1010.1 - 0.8
18/05:00am 9.8 5.8 8.2 90 0.8 WSW 19 26 10 14 1009.8 - 0.8
18/04:30am 9.9 6.0 8.5 91 0.7 WSW 19 24 10 13 1009.8 - 0.8
18/04:00am 9.9 5.8 8.8 93 0.5 WSW 20 28 11 15 1009.8 - 0.8
18/03:30am 9.8 5.5 9.2 96 0.3 WSW 22 28 12 15 1009.7 - 0.8
18/03:00am 9.7 5.8 9.4 98 0.2 WSW 20 26 11 14 1010.0 1010.2 0.8
18/02:30am 9.8 5.9 9.5 98 0.2 WSW 20 26 11 14 1010.2 - 0.8
18/02:00am 9.9 6.2 9.6 98 0.2 W 19 24 10 13 1010.4 - 0.8
18/01:30am 10.0 7.2 9.9 99 0.1 WSW 15 20 8 11 1010.5 - 0.8
18/01:00am 9.9 6.7 9.8 99 0.1 WSW 17 22 9 12 1010.5 - 0.8
18/12:30am 10.1 7.3 9.9 99 0.1 SW 15 20 8 11 1010.5 - 0.8
18/12:00am 10.3 6.8 10.1 99 0.1 SW 19 22 10 12 1010.7 1010.9 0.8
 
Date/Time
EST
Temp
°C
App
Temp
°C
Dew
Point
Rel
Hum
%
Delta-T
°C
Wind Press
QNH
hPa
Press
MSL
hPa
Rain
since 9 am
mm
Dir
 
Spd
km/h
Gust
km/h
Spd
kts
Gust
kts
17/11:30pm 10.4 8.0 10.2 99 0.1 S 13 15 7 8 1010.7 - 0.8
17/11:00pm 10.3 7.9 10.0 98 0.2 S 13 15 7 8 1010.8 - 0.6
17/10:30pm 10.2 7.3 9.7 97 0.3 S 15 20 8 11 1010.9 - 0.4
17/10:00pm 10.3 7.0 9.4 94 0.5 SSW 17 20 9 11 1010.9 - 0.2
17/09:30pm 10.6 6.9 9.5 93 0.6 SSW 19 24 10 13 1010.9 - 0.0
17/09:00pm 10.9 7.7 10.0 94 0.5 SSW 17 20 9 11 1011.0 1011.2 0.0

Other Formats:

Comma delimited format used in spreadsheet applications
http://www.bom.gov.au/fwo/IDN60801/IDN60801.95708.axf

JavaScript Object Notation format (JSON) in row-major order
http://www.bom.gov.au/fwo/IDN60801/IDN60801.95708.json